sensor_id;sensor_type;location;lat;lon;timestamp;P1;durP1;ratioP1;P2;durP2;ratioP2
77868;SDS011;67231;59.144;37.934;2023-11-18T00:01:31;87.18;;;19.63;;
77868;SDS011;67231;59.144;37.934;2023-11-18T00:04:01;98.70;;;21.25;;
77868;SDS011;67231;59.144;37.934;2023-11-18T00:06:28;86.65;;;20.70;;
77868;SDS011;67231;59.144;37.934;2023-11-18T00:08:54;110.13;;;23.45;;
77868;SDS011;67231;59.144;37.934;2023-11-18T00:11:21;126.85;;;26.38;;
77868;SDS011;67231;59.144;37.934;2023-11-18T00:13:47;115.63;;;29.52;;
77868;SDS011;67231;59.144;37.934;2023-11-18T00:16:14;131.95;;;30.15;;
77868;SDS011;67231;59.144;37.934;2023-11-18T00:18:42;124.38;;;28.58;;
77868;SDS011;67231;59.144;37.934;2023-11-18T00:21:09;111.78;;;28.25;;
77868;SDS011;67231;59.144;37.934;2023-11-18T00:23:36;123.70;;;29.40;;
77868;SDS011;67231;59.144;37.934;2023-11-18T00:26:02;131.13;;;29.60;;
77868;SDS011;67231;59.144;37.934;2023-11-18T00:28:29;107.22;;;26.42;;
77868;SDS011;67231;59.144;37.934;2023-11-18T00:30:56;133.68;;;28.45;;
77868;SDS011;67231;59.144;37.934;2023-11-18T00:33:22;135.30;;;31.50;;
77868;SDS011;67231;59.144;37.934;2023-11-18T00:35:49;106.45;;;26.45;;
77868;SDS011;67231;59.144;37.934;2023-11-18T00:38:15;80.57;;;19.95;;
77868;SDS011;67231;59.144;37.934;2023-11-18T00:40:42;104.35;;;24.23;;
77868;SDS011;67231;59.144;37.934;2023-11-18T00:43:08;93.10;;;22.63;;
77868;SDS011;67231;59.144;37.934;2023-11-18T00:45:35;82.95;;;20.70;;
77868;SDS011;67231;59.144;37.934;2023-11-18T00:48:02;76.75;;;20.23;;
77868;SDS011;67231;59.144;37.934;2023-11-18T00:50:30;82.82;;;19.30;;
77868;SDS011;67231;59.144;37.934;2023-11-18T00:53:00;74.85;;;18.50;;
77868;SDS011;67231;59.144;37.934;2023-11-18T00:55:26;74.95;;;18.67;;
77868;SDS011;67231;59.144;37.934;2023-11-18T00:57:53;56.45;;;12.95;;
77868;SDS011;67231;59.144;37.934;2023-11-18T01:00:19;47.08;;;10.90;;
77868;SDS011;67231;59.144;37.934;2023-11-18T01:02:48;31.70;;;8.45;;
77868;SDS011;67231;59.144;37.934;2023-11-18T01:05:15;33.20;;;7.30;;
77868;SDS011;67231;59.144;37.934;2023-11-18T01:07:41;15.48;;;5.22;;
77868;SDS011;67231;59.144;37.934;2023-11-18T01:10:09;25.40;;;6.93;;
77868;SDS011;67231;59.144;37.934;2023-11-18T01:12:35;17.42;;;5.10;;
77868;SDS011;67231;59.144;37.934;2023-11-18T01:15:02;27.98;;;4.93;;
77868;SDS011;67231;59.144;37.934;2023-11-18T01:17:32;17.98;;;4.68;;
77868;SDS011;67231;59.144;37.934;2023-11-18T01:19:59;12.38;;;3.60;;
77868;SDS011;67231;59.144;37.934;2023-11-18T01:22:27;10.95;;;3.40;;
77868;SDS011;67231;59.144;37.934;2023-11-18T01:24:55;8.52;;;3.20;;
77868;SDS011;67231;59.144;37.934;2023-11-18T01:27:21;9.48;;;2.90;;
77868;SDS011;67231;59.144;37.934;2023-11-18T01:29:48;8.80;;;3.08;;
77868;SDS011;67231;59.144;37.934;2023-11-18T01:32:15;11.57;;;3.15;;
77868;SDS011;67231;59.144;37.934;2023-11-18T01:34:43;8.63;;;2.53;;
77868;SDS011;67231;59.144;37.934;2023-11-18T01:37:16;9.55;;;3.67;;
77868;SDS011;67231;59.144;37.934;2023-11-18T01:39:42;8.48;;;3.17;;
77868;SDS011;67231;59.144;37.934;2023-11-18T01:42:09;12.63;;;3.35;;
77868;SDS011;67231;59.144;37.934;2023-11-18T01:44:35;14.07;;;2.88;;
77868;SDS011;67231;59.144;37.934;2023-11-18T01:47:02;7.22;;;2.47;;
77868;SDS011;67231;59.144;37.934;2023-11-18T01:49:31;11.82;;;2.80;;
77868;SDS011;67231;59.144;37.934;2023-11-18T01:52:02;6.43;;;2.58;;
77868;SDS011;67231;59.144;37.934;2023-11-18T01:54:29;14.35;;;2.70;;
77868;SDS011;67231;59.144;37.934;2023-11-18T01:56:56;6.85;;;2.78;;
77868;SDS011;67231;59.144;37.934;2023-11-18T01:59:24;10.45;;;2.53;;
77868;SDS011;67231;59.144;37.934;2023-11-18T02:01:52;7.60;;;2.75;;
77868;SDS011;67231;59.144;37.934;2023-11-18T02:04:20;4.38;;;2.03;;
77868;SDS011;67231;59.144;37.934;2023-11-18T02:06:47;4.75;;;2.08;;
77868;SDS011;67231;59.144;37.934;2023-11-18T02:09:18;4.22;;;2.00;;
77868;SDS011;67231;59.144;37.934;2023-11-18T02:14:46;3.35;;;1.90;;
77868;SDS011;67231;59.144;37.934;2023-11-18T02:17:14;7.05;;;2.35;;
77868;SDS011;67231;59.144;37.934;2023-11-18T02:19:46;7.15;;;2.42;;
77868;SDS011;67231;59.144;37.934;2023-11-18T02:22:13;7.68;;;2.30;;
77868;SDS011;67231;59.144;37.934;2023-11-18T02:24:40;7.25;;;2.40;;
77868;SDS011;67231;59.144;37.934;2023-11-18T02:27:07;7.07;;;2.60;;
77868;SDS011;67231;59.144;37.934;2023-11-18T02:29:37;12.50;;;2.40;;
77868;SDS011;67231;59.144;37.934;2023-11-18T02:37:29;5.43;;;2.40;;
77868;SDS011;67231;59.144;37.934;2023-11-18T02:40:01;4.88;;;1.70;;
77868;SDS011;67231;59.144;37.934;2023-11-18T02:42:37;7.38;;;2.83;;
77868;SDS011;67231;59.144;37.934;2023-11-18T02:45:06;6.85;;;2.65;;
77868;SDS011;67231;59.144;37.934;2023-11-18T02:50:01;4.20;;;1.65;;
77868;SDS011;67231;59.144;37.934;2023-11-18T02:52:38;3.58;;;1.85;;
77868;SDS011;67231;59.144;37.934;2023-11-18T02:55:06;3.58;;;1.80;;
77868;SDS011;67231;59.144;37.934;2023-11-18T02:57:35;5.07;;;2.35;;
77868;SDS011;67231;59.144;37.934;2023-11-18T03:00:03;7.97;;;2.80;;
77868;SDS011;67231;59.144;37.934;2023-11-18T03:02:42;8.15;;;3.53;;
77868;SDS011;67231;59.144;37.934;2023-11-18T03:05:09;6.45;;;2.78;;
77868;SDS011;67231;59.144;37.934;2023-11-18T03:07:38;6.85;;;2.47;;
77868;SDS011;67231;59.144;37.934;2023-11-18T03:10:08;7.05;;;1.85;;
77868;SDS011;67231;59.144;37.934;2023-11-18T03:12:38;5.07;;;2.25;;
77868;SDS011;67231;59.144;37.934;2023-11-18T03:15:05;4.95;;;2.20;;
77868;SDS011;67231;59.144;37.934;2023-11-18T03:17:35;5.70;;;1.95;;
77868;SDS011;67231;59.144;37.934;2023-11-18T03:20:02;5.63;;;2.20;;
77868;SDS011;67231;59.144;37.934;2023-11-18T03:22:31;6.65;;;2.08;;
77868;SDS011;67231;59.144;37.934;2023-11-18T03:24:57;3.83;;;1.80;;
77868;SDS011;67231;59.144;37.934;2023-11-18T03:27:24;4.35;;;2.00;;
77868;SDS011;67231;59.144;37.934;2023-11-18T03:29:50;4.75;;;1.75;;
77868;SDS011;67231;59.144;37.934;2023-11-18T03:32:17;3.90;;;1.42;;
77868;SDS011;67231;59.144;37.934;2023-11-18T03:34:43;4.63;;;2.00;;
77868;SDS011;67231;59.144;37.934;2023-11-18T03:37:10;5.00;;;1.98;;
77868;SDS011;67231;59.144;37.934;2023-11-18T03:39:37;5.32;;;2.35;;
77868;SDS011;67231;59.144;37.934;2023-11-18T03:42:03;5.55;;;2.60;;
77868;SDS011;67231;59.144;37.934;2023-11-18T03:44:30;5.60;;;2.30;;
77868;SDS011;67231;59.144;37.934;2023-11-18T03:46:56;5.72;;;2.40;;
77868;SDS011;67231;59.144;37.934;2023-11-18T03:49:23;5.25;;;2.17;;
77868;SDS011;67231;59.144;37.934;2023-11-18T03:51:49;6.47;;;2.75;;
77868;SDS011;67231;59.144;37.934;2023-11-18T03:54:15;3.30;;;1.70;;
77868;SDS011;67231;59.144;37.934;2023-11-18T03:56:42;5.07;;;2.00;;
77868;SDS011;67231;59.144;37.934;2023-11-18T03:59:08;5.53;;;2.40;;
77868;SDS011;67231;59.144;37.934;2023-11-18T04:01:35;7.13;;;2.30;;
77868;SDS011;67231;59.144;37.934;2023-11-18T04:04:02;4.22;;;2.10;;
77868;SDS011;67231;59.144;37.934;2023-11-18T04:06:30;3.80;;;1.83;;
77868;SDS011;67231;59.144;37.934;2023-11-18T04:08:56;7.65;;;2.30;;
77868;SDS011;67231;59.144;37.934;2023-11-18T04:11:23;4.40;;;1.95;;
77868;SDS011;67231;59.144;37.934;2023-11-18T04:13:49;6.13;;;2.13;;
77868;SDS011;67231;59.144;37.934;2023-11-18T04:16:15;5.05;;;2.10;;
77868;SDS011;67231;59.144;37.934;2023-11-18T04:18:43;4.50;;;1.90;;
77868;SDS011;67231;59.144;37.934;2023-11-18T04:21:10;7.18;;;2.38;;
77868;SDS011;67231;59.144;37.934;2023-11-18T04:23:39;6.45;;;2.30;;
77868;SDS011;67231;59.144;37.934;2023-11-18T04:26:07;6.47;;;2.20;;
77868;SDS011;67231;59.144;37.934;2023-11-18T04:28:35;6.53;;;2.30;;
77868;SDS011;67231;59.144;37.934;2023-11-18T04:31:02;7.05;;;3.03;;
77868;SDS011;67231;59.144;37.934;2023-11-18T04:33:31;7.32;;;2.22;;
77868;SDS011;67231;59.144;37.934;2023-11-18T04:35:57;6.20;;;2.22;;
77868;SDS011;67231;59.144;37.934;2023-11-18T04:38:24;8.18;;;2.63;;
77868;SDS011;67231;59.144;37.934;2023-11-18T04:40:52;7.10;;;2.45;;
77868;SDS011;67231;59.144;37.934;2023-11-18T04:43:20;11.77;;;2.47;;
77868;SDS011;67231;59.144;37.934;2023-11-18T04:45:48;8.10;;;2.85;;
77868;SDS011;67231;59.144;37.934;2023-11-18T04:48:14;13.90;;;3.08;;
77868;SDS011;67231;59.144;37.934;2023-11-18T04:50:41;7.90;;;2.78;;
77868;SDS011;67231;59.144;37.934;2023-11-18T04:53:08;6.63;;;2.88;;
77868;SDS011;67231;59.144;37.934;2023-11-18T04:55:37;10.85;;;2.88;;
77868;SDS011;67231;59.144;37.934;2023-11-18T04:58:03;11.07;;;2.65;;
77868;SDS011;67231;59.144;37.934;2023-11-18T05:00:32;9.05;;;2.85;;
77868;SDS011;67231;59.144;37.934;2023-11-18T05:02:59;12.57;;;3.50;;
77868;SDS011;67231;59.144;37.934;2023-11-18T05:05:25;14.70;;;2.97;;
77868;SDS011;67231;59.144;37.934;2023-11-18T05:07:52;9.13;;;3.45;;
77868;SDS011;67231;59.144;37.934;2023-11-18T05:10:18;10.38;;;2.63;;
77868;SDS011;67231;59.144;37.934;2023-11-18T05:12:44;8.20;;;2.75;;
77868;SDS011;67231;59.144;37.934;2023-11-18T05:15:19;8.65;;;2.80;;
77868;SDS011;67231;59.144;37.934;2023-11-18T05:17:45;11.30;;;3.20;;
77868;SDS011;67231;59.144;37.934;2023-11-18T05:20:11;14.00;;;3.33;;
77868;SDS011;67231;59.144;37.934;2023-11-18T05:22:38;14.52;;;3.63;;
77868;SDS011;67231;59.144;37.934;2023-11-18T05:25:05;18.35;;;4.93;;
77868;SDS011;67231;59.144;37.934;2023-11-18T05:27:32;22.65;;;5.90;;
77868;SDS011;67231;59.144;37.934;2023-11-18T05:29:58;20.55;;;4.93;;
77868;SDS011;67231;59.144;37.934;2023-11-18T05:32:28;18.02;;;4.45;;
77868;SDS011;67231;59.144;37.934;2023-11-18T05:34:55;18.92;;;5.97;;
77868;SDS011;67231;59.144;37.934;2023-11-18T05:37:23;14.55;;;3.80;;
77868;SDS011;67231;59.144;37.934;2023-11-18T05:39:50;15.48;;;3.53;;
77868;SDS011;67231;59.144;37.934;2023-11-18T05:42:25;10.80;;;4.00;;
77868;SDS011;67231;59.144;37.934;2023-11-18T05:44:52;17.40;;;5.20;;
77868;SDS011;67231;59.144;37.934;2023-11-18T05:47:25;25.45;;;6.10;;
77868;SDS011;67231;59.144;37.934;2023-11-18T05:49:52;33.85;;;9.82;;
77868;SDS011;67231;59.144;37.934;2023-11-18T05:52:19;30.40;;;7.63;;
77868;SDS011;67231;59.144;37.934;2023-11-18T05:54:46;38.88;;;9.30;;
77868;SDS011;67231;59.144;37.934;2023-11-18T05:57:16;38.25;;;8.57;;
77868;SDS011;67231;59.144;37.934;2023-11-18T05:59:43;44.72;;;7.38;;
77868;SDS011;67231;59.144;37.934;2023-11-18T06:02:10;48.40;;;8.00;;
77868;SDS011;67231;59.144;37.934;2023-11-18T06:04:44;36.30;;;7.15;;
77868;SDS011;67231;59.144;37.934;2023-11-18T06:07:11;51.33;;;7.70;;
77868;SDS011;67231;59.144;37.934;2023-11-18T06:09:40;44.97;;;9.13;;
77868;SDS011;67231;59.144;37.934;2023-11-18T06:12:08;48.90;;;9.88;;
77868;SDS011;67231;59.144;37.934;2023-11-18T06:14:39;49.40;;;12.02;;
77868;SDS011;67231;59.144;37.934;2023-11-18T06:17:07;53.92;;;13.00;;
77868;SDS011;67231;59.144;37.934;2023-11-18T06:19:34;45.78;;;9.80;;
77868;SDS011;67231;59.144;37.934;2023-11-18T06:22:01;45.88;;;11.90;;
77868;SDS011;67231;59.144;37.934;2023-11-18T06:24:27;57.50;;;11.95;;
77868;SDS011;67231;59.144;37.934;2023-11-18T06:26:54;43.88;;;10.30;;
77868;SDS011;67231;59.144;37.934;2023-11-18T06:29:20;52.17;;;11.10;;
77868;SDS011;67231;59.144;37.934;2023-11-18T06:31:47;53.35;;;10.93;;
77868;SDS011;67231;59.144;37.934;2023-11-18T06:34:14;59.20;;;12.68;;
77868;SDS011;67231;59.144;37.934;2023-11-18T06:36:40;51.92;;;11.73;;
77868;SDS011;67231;59.144;37.934;2023-11-18T06:39:07;47.80;;;12.57;;
77868;SDS011;67231;59.144;37.934;2023-11-18T06:41:33;48.53;;;10.88;;
77868;SDS011;67231;59.144;37.934;2023-11-18T06:44:00;62.67;;;12.35;;
77868;SDS011;67231;59.144;37.934;2023-11-18T06:46:35;58.33;;;13.93;;
77868;SDS011;67231;59.144;37.934;2023-11-18T06:49:03;39.67;;;10.02;;
77868;SDS011;67231;59.144;37.934;2023-11-18T06:51:31;38.92;;;10.00;;
77868;SDS011;67231;59.144;37.934;2023-11-18T06:54:01;33.85;;;8.00;;
77868;SDS011;67231;59.144;37.934;2023-11-18T06:56:39;58.67;;;10.32;;
77868;SDS011;67231;59.144;37.934;2023-11-18T06:59:10;49.58;;;11.07;;
77868;SDS011;67231;59.144;37.934;2023-11-18T07:01:39;53.28;;;11.10;;
77868;SDS011;67231;59.144;37.934;2023-11-18T07:04:12;68.18;;;11.70;;
77868;SDS011;67231;59.144;37.934;2023-11-18T07:06:40;52.50;;;12.38;;
77868;SDS011;67231;59.144;37.934;2023-11-18T07:09:08;59.75;;;13.60;;
77868;SDS011;67231;59.144;37.934;2023-11-18T07:11:40;49.38;;;11.82;;
77868;SDS011;67231;59.144;37.934;2023-11-18T07:14:09;41.50;;;12.13;;
77868;SDS011;67231;59.144;37.934;2023-11-18T07:16:38;62.35;;;12.60;;
77868;SDS011;67231;59.144;37.934;2023-11-18T07:19:05;57.45;;;12.05;;
77868;SDS011;67231;59.144;37.934;2023-11-18T07:21:33;40.67;;;9.85;;
77868;SDS011;67231;59.144;37.934;2023-11-18T07:24:00;33.75;;;9.10;;
77868;SDS011;67231;59.144;37.934;2023-11-18T07:26:29;33.63;;;10.50;;
77868;SDS011;67231;59.144;37.934;2023-11-18T07:28:55;54.75;;;14.90;;
77868;SDS011;67231;59.144;37.934;2023-11-18T07:31:22;47.67;;;13.90;;
77868;SDS011;67231;59.144;37.934;2023-11-18T07:33:50;51.80;;;13.85;;
77868;SDS011;67231;59.144;37.934;2023-11-18T07:36:18;56.58;;;14.55;;
77868;SDS011;67231;59.144;37.934;2023-11-18T07:38:46;49.50;;;13.50;;
77868;SDS011;67231;59.144;37.934;2023-11-18T07:41:13;59.55;;;16.33;;
77868;SDS011;67231;59.144;37.934;2023-11-18T07:43:50;71.10;;;21.17;;
77868;SDS011;67231;59.144;37.934;2023-11-18T07:46:21;79.03;;;19.52;;
77868;SDS011;67231;59.144;37.934;2023-11-18T07:48:48;97.50;;;20.98;;
77868;SDS011;67231;59.144;37.934;2023-11-18T07:51:15;81.45;;;19.27;;
77868;SDS011;67231;59.144;37.934;2023-11-18T07:53:42;55.20;;;16.67;;
77868;SDS011;67231;59.144;37.934;2023-11-18T07:56:08;63.72;;;17.60;;
77868;SDS011;67231;59.144;37.934;2023-11-18T07:58:36;73.60;;;20.55;;
77868;SDS011;67231;59.144;37.934;2023-11-18T08:01:03;88.65;;;24.70;;
77868;SDS011;67231;59.144;37.934;2023-11-18T08:03:33;104.10;;;28.08;;
77868;SDS011;67231;59.144;37.934;2023-11-18T08:06:00;116.10;;;31.48;;
77868;SDS011;67231;59.144;37.934;2023-11-18T08:08:28;82.18;;;22.92;;
77868;SDS011;67231;59.144;37.934;2023-11-18T08:10:54;69.88;;;21.60;;
77868;SDS011;67231;59.144;37.934;2023-11-18T08:13:21;66.00;;;16.80;;
77868;SDS011;67231;59.144;37.934;2023-11-18T08:15:48;48.05;;;13.07;;
77868;SDS011;67231;59.144;37.934;2023-11-18T08:18:14;41.08;;;12.88;;
77868;SDS011;67231;59.144;37.934;2023-11-18T08:20:42;53.78;;;13.13;;
77868;SDS011;67231;59.144;37.934;2023-11-18T08:23:09;48.55;;;12.15;;
77868;SDS011;67231;59.144;37.934;2023-11-18T08:25:36;47.80;;;12.50;;
77868;SDS011;67231;59.144;37.934;2023-11-18T08:28:03;53.88;;;12.95;;
77868;SDS011;67231;59.144;37.934;2023-11-18T08:30:30;49.60;;;14.32;;
77868;SDS011;67231;59.144;37.934;2023-11-18T08:32:56;41.03;;;10.45;;
77868;SDS011;67231;59.144;37.934;2023-11-18T08:35:24;49.95;;;12.05;;
77868;SDS011;67231;59.144;37.934;2023-11-18T08:37:52;58.03;;;14.32;;
77868;SDS011;67231;59.144;37.934;2023-11-18T08:40:19;44.80;;;12.95;;
77868;SDS011;67231;59.144;37.934;2023-11-18T08:42:49;43.08;;;11.65;;
77868;SDS011;67231;59.144;37.934;2023-11-18T08:45:18;43.42;;;13.13;;
77868;SDS011;67231;59.144;37.934;2023-11-18T08:47:48;50.25;;;12.73;;
77868;SDS011;67231;59.144;37.934;2023-11-18T08:50:16;52.03;;;15.50;;
77868;SDS011;67231;59.144;37.934;2023-11-18T08:52:43;45.22;;;13.27;;
77868;SDS011;67231;59.144;37.934;2023-11-18T08:55:13;33.33;;;10.57;;
77868;SDS011;67231;59.144;37.934;2023-11-18T08:57:45;46.95;;;12.98;;
77868;SDS011;67231;59.144;37.934;2023-11-18T09:00:28;38.60;;;9.65;;
77868;SDS011;67231;59.144;37.934;2023-11-18T09:03:15;33.63;;;9.57;;
77868;SDS011;67231;59.144;37.934;2023-11-18T09:06:01;24.90;;;7.55;;
77868;SDS011;67231;59.144;37.934;2023-11-18T09:08:38;47.13;;;12.00;;
77868;SDS011;67231;59.144;37.934;2023-11-18T09:11:05;35.28;;;10.10;;
77868;SDS011;67231;59.144;37.934;2023-11-18T09:13:33;31.70;;;8.88;;
77868;SDS011;67231;59.144;37.934;2023-11-18T09:16:02;23.25;;;7.30;;
77868;SDS011;67231;59.144;37.934;2023-11-18T09:18:30;25.85;;;6.50;;
77868;SDS011;67231;59.144;37.934;2023-11-18T09:20:59;36.92;;;8.57;;
77868;SDS011;67231;59.144;37.934;2023-11-18T09:23:28;35.72;;;10.70;;
77868;SDS011;67231;59.144;37.934;2023-11-18T09:25:56;42.65;;;11.65;;
77868;SDS011;67231;59.144;37.934;2023-11-18T09:28:25;48.33;;;11.23;;
77868;SDS011;67231;59.144;37.934;2023-11-18T09:30:56;51.58;;;11.45;;
77868;SDS011;67231;59.144;37.934;2023-11-18T09:33:25;37.60;;;8.88;;
77868;SDS011;67231;59.144;37.934;2023-11-18T09:35:55;27.23;;;8.15;;
77868;SDS011;67231;59.144;37.934;2023-11-18T09:38:29;20.13;;;6.07;;
77868;SDS011;67231;59.144;37.934;2023-11-18T09:41:00;21.95;;;4.72;;
77868;SDS011;67231;59.144;37.934;2023-11-18T09:43:33;19.60;;;5.82;;
77868;SDS011;67231;59.144;37.934;2023-11-18T09:46:09;13.32;;;5.07;;
77868;SDS011;67231;59.144;37.934;2023-11-18T09:51:14;10.90;;;4.53;;
77868;SDS011;67231;59.144;37.934;2023-11-18T09:53:44;15.80;;;5.00;;
77868;SDS011;67231;59.144;37.934;2023-11-18T09:56:23;12.35;;;4.68;;
77868;SDS011;67231;59.144;37.934;2023-11-18T10:02:02;8.40;;;3.72;;
77868;SDS011;67231;59.144;37.934;2023-11-18T10:04:37;13.13;;;4.88;;
77868;SDS011;67231;59.144;37.934;2023-11-18T10:07:08;10.20;;;4.35;;
77868;SDS011;67231;59.144;37.934;2023-11-18T10:09:37;9.00;;;3.40;;
77868;SDS011;67231;59.144;37.934;2023-11-18T10:12:07;6.82;;;3.47;;
77868;SDS011;67231;59.144;37.934;2023-11-18T10:14:40;5.63;;;2.60;;
77868;SDS011;67231;59.144;37.934;2023-11-18T10:17:09;9.20;;;2.85;;
77868;SDS011;67231;59.144;37.934;2023-11-18T10:22:24;10.88;;;2.85;;
77868;SDS011;67231;59.144;37.934;2023-11-18T10:24:56;6.60;;;2.50;;
77868;SDS011;67231;59.144;37.934;2023-11-18T10:27:27;6.22;;;2.70;;
77868;SDS011;67231;59.144;37.934;2023-11-18T10:29:58;5.82;;;2.33;;
77868;SDS011;67231;59.144;37.934;2023-11-18T10:32:33;10.50;;;3.60;;
77868;SDS011;67231;59.144;37.934;2023-11-18T10:35:03;7.25;;;2.97;;
77868;SDS011;67231;59.144;37.934;2023-11-18T10:37:35;10.63;;;3.60;;
77868;SDS011;67231;59.144;37.934;2023-11-18T10:40:04;7.50;;;3.70;;
77868;SDS011;67231;59.144;37.934;2023-11-18T10:42:31;10.45;;;3.65;;
77868;SDS011;67231;59.144;37.934;2023-11-18T10:44:59;8.75;;;3.58;;
77868;SDS011;67231;59.144;37.934;2023-11-18T10:47:33;14.32;;;4.07;;
77868;SDS011;67231;59.144;37.934;2023-11-18T10:50:07;11.77;;;3.92;;
77868;SDS011;67231;59.144;37.934;2023-11-18T10:52:35;7.65;;;3.42;;
77868;SDS011;67231;59.144;37.934;2023-11-18T10:55:06;7.00;;;3.05;;
77868;SDS011;67231;59.144;37.934;2023-11-18T10:57:38;17.23;;;4.28;;
77868;SDS011;67231;59.144;37.934;2023-11-18T11:00:06;8.80;;;3.40;;
77868;SDS011;67231;59.144;37.934;2023-11-18T11:02:46;5.10;;;2.53;;
77868;SDS011;67231;59.144;37.934;2023-11-18T11:05:29;5.50;;;2.33;;
77868;SDS011;67231;59.144;37.934;2023-11-18T11:07:59;4.72;;;2.42;;
77868;SDS011;67231;59.144;37.934;2023-11-18T11:10:26;8.10;;;3.72;;
77868;SDS011;67231;59.144;37.934;2023-11-18T11:12:55;5.70;;;2.60;;
77868;SDS011;67231;59.144;37.934;2023-11-18T11:15:32;8.75;;;2.72;;
77868;SDS011;67231;59.144;37.934;2023-11-18T11:18:03;6.85;;;2.60;;
77868;SDS011;67231;59.144;37.934;2023-11-18T11:23:18;15.18;;;2.33;;
77868;SDS011;67231;59.144;37.934;2023-11-18T11:31:40;8.45;;;3.25;;
77868;SDS011;67231;59.144;37.934;2023-11-18T11:34:16;13.98;;;4.05;;
77868;SDS011;67231;59.144;37.934;2023-11-18T11:36:47;7.13;;;3.22;;
77868;SDS011;67231;59.144;37.934;2023-11-18T11:39:17;10.80;;;3.40;;
77868;SDS011;67231;59.144;37.934;2023-11-18T11:41:52;7.80;;;2.65;;
77868;SDS011;67231;59.144;37.934;2023-11-18T11:44:23;11.45;;;2.97;;
77868;SDS011;67231;59.144;37.934;2023-11-18T11:46:56;8.05;;;3.15;;
77868;SDS011;67231;59.144;37.934;2023-11-18T11:49:27;11.00;;;3.28;;
77868;SDS011;67231;59.144;37.934;2023-11-18T11:52:04;4.78;;;2.55;;
77868;SDS011;67231;59.144;37.934;2023-11-18T11:57:32;8.38;;;2.50;;
77868;SDS011;67231;59.144;37.934;2023-11-18T12:00:08;5.95;;;2.90;;
77868;SDS011;67231;59.144;37.934;2023-11-18T12:02:51;6.78;;;2.20;;
77868;SDS011;67231;59.144;37.934;2023-11-18T12:05:25;5.75;;;2.33;;
77868;SDS011;67231;59.144;37.934;2023-11-18T12:07:52;4.43;;;2.00;;
77868;SDS011;67231;59.144;37.934;2023-11-18T12:10:40;7.47;;;2.03;;
77868;SDS011;67231;59.144;37.934;2023-11-18T12:13:19;3.63;;;2.10;;
77868;SDS011;67231;59.144;37.934;2023-11-18T12:15:56;3.80;;;1.83;;
77868;SDS011;67231;59.144;37.934;2023-11-18T12:18:31;3.05;;;1.70;;
77868;SDS011;67231;59.144;37.934;2023-11-18T12:20:59;3.35;;;1.77;;
77868;SDS011;67231;59.144;37.934;2023-11-18T12:23:30;5.40;;;1.42;;
77868;SDS011;67231;59.144;37.934;2023-11-18T12:26:00;4.85;;;1.90;;
77868;SDS011;67231;59.144;37.934;2023-11-18T12:31:02;5.97;;;1.75;;
77868;SDS011;67231;59.144;37.934;2023-11-18T12:41:55;3.72;;;1.50;;
77868;SDS011;67231;59.144;37.934;2023-11-18T12:47:42;3.38;;;1.70;;
77868;SDS011;67231;59.144;37.934;2023-11-18T12:50:10;3.40;;;1.33;;
77868;SDS011;67231;59.144;37.934;2023-11-18T12:52:43;4.38;;;1.55;;
77868;SDS011;67231;59.144;37.934;2023-11-18T12:58:36;4.35;;;1.77;;
77868;SDS011;67231;59.144;37.934;2023-11-18T13:01:03;3.33;;;1.58;;
77868;SDS011;67231;59.144;37.934;2023-11-18T13:03:30;2.75;;;1.40;;
77868;SDS011;67231;59.144;37.934;2023-11-18T13:05:57;9.30;;;2.20;;
77868;SDS011;67231;59.144;37.934;2023-11-18T13:08:23;7.25;;;2.47;;
77868;SDS011;67231;59.144;37.934;2023-11-18T13:10:50;6.65;;;2.47;;
77868;SDS011;67231;59.144;37.934;2023-11-18T13:13:16;5.72;;;2.42;;
77868;SDS011;67231;59.144;37.934;2023-11-18T13:15:46;9.98;;;2.55;;
77868;SDS011;67231;59.144;37.934;2023-11-18T13:18:14;6.18;;;2.25;;
77868;SDS011;67231;59.144;37.934;2023-11-18T13:20:40;7.85;;;2.80;;
77868;SDS011;67231;59.144;37.934;2023-11-18T13:23:10;7.38;;;2.85;;
77868;SDS011;67231;59.144;37.934;2023-11-18T13:25:37;5.35;;;2.60;;
77868;SDS011;67231;59.144;37.934;2023-11-18T13:28:05;11.48;;;2.60;;
77868;SDS011;67231;59.144;37.934;2023-11-18T13:30:37;6.82;;;2.45;;
77868;SDS011;67231;59.144;37.934;2023-11-18T13:33:04;10.20;;;2.35;;
77868;SDS011;67231;59.144;37.934;2023-11-18T13:35:33;7.57;;;2.67;;
77868;SDS011;67231;59.144;37.934;2023-11-18T13:38:01;5.32;;;2.20;;
77868;SDS011;67231;59.144;37.934;2023-11-18T13:40:46;6.72;;;2.35;;
77868;SDS011;67231;59.144;37.934;2023-11-18T13:43:13;7.50;;;3.20;;
77868;SDS011;67231;59.144;37.934;2023-11-18T13:45:40;8.35;;;2.60;;
77868;SDS011;67231;59.144;37.934;2023-11-18T13:48:08;5.97;;;2.25;;
77868;SDS011;67231;59.144;37.934;2023-11-18T13:50:40;5.78;;;2.20;;
77868;SDS011;67231;59.144;37.934;2023-11-18T13:53:08;4.35;;;1.92;;
77868;SDS011;67231;59.144;37.934;2023-11-18T13:55:36;3.38;;;1.75;;
77868;SDS011;67231;59.144;37.934;2023-11-18T13:58:05;5.38;;;2.35;;
77868;SDS011;67231;59.144;37.934;2023-11-18T14:00:32;3.15;;;1.52;;
77868;SDS011;67231;59.144;37.934;2023-11-18T14:02:59;3.15;;;1.80;;
77868;SDS011;67231;59.144;37.934;2023-11-18T14:05:25;4.60;;;1.58;;
77868;SDS011;67231;59.144;37.934;2023-11-18T14:07:52;4.60;;;1.80;;
77868;SDS011;67231;59.144;37.934;2023-11-18T14:10:25;6.35;;;2.30;;
77868;SDS011;67231;59.144;37.934;2023-11-18T14:12:59;4.88;;;2.25;;
77868;SDS011;67231;59.144;37.934;2023-11-18T14:15:26;4.90;;;1.73;;
77868;SDS011;67231;59.144;37.934;2023-11-18T14:17:53;4.63;;;2.20;;
77868;SDS011;67231;59.144;37.934;2023-11-18T14:20:19;2.75;;;1.58;;
77868;SDS011;67231;59.144;37.934;2023-11-18T14:22:48;4.30;;;1.95;;
77868;SDS011;67231;59.144;37.934;2023-11-18T14:25:15;6.05;;;2.22;;
77868;SDS011;67231;59.144;37.934;2023-11-18T14:27:44;7.32;;;2.38;;
77868;SDS011;67231;59.144;37.934;2023-11-18T14:30:11;7.15;;;3.03;;
77868;SDS011;67231;59.144;37.934;2023-11-18T14:32:38;5.50;;;2.28;;
77868;SDS011;67231;59.144;37.934;2023-11-18T14:35:04;6.30;;;2.67;;
77868;SDS011;67231;59.144;37.934;2023-11-18T14:37:38;7.53;;;2.88;;
77868;SDS011;67231;59.144;37.934;2023-11-18T14:40:10;3.50;;;1.55;;
77868;SDS011;67231;59.144;37.934;2023-11-18T14:42:43;6.93;;;2.55;;
77868;SDS011;67231;59.144;37.934;2023-11-18T14:45:14;5.97;;;2.05;;
77868;SDS011;67231;59.144;37.934;2023-11-18T14:47:43;4.55;;;1.80;;
77868;SDS011;67231;59.144;37.934;2023-11-18T14:50:18;3.78;;;1.63;;
77868;SDS011;67231;59.144;37.934;2023-11-18T14:52:45;4.55;;;2.00;;
77868;SDS011;67231;59.144;37.934;2023-11-18T14:55:28;4.80;;;2.08;;
77868;SDS011;67231;59.144;37.934;2023-11-18T14:57:55;5.78;;;2.63;;
77868;SDS011;67231;59.144;37.934;2023-11-18T15:00:22;6.82;;;3.28;;
77868;SDS011;67231;59.144;37.934;2023-11-18T15:02:51;11.23;;;4.75;;
77868;SDS011;67231;59.144;37.934;2023-11-18T15:05:19;9.35;;;4.18;;
77868;SDS011;67231;59.144;37.934;2023-11-18T15:07:46;7.57;;;3.47;;
77868;SDS011;67231;59.144;37.934;2023-11-18T15:10:17;5.15;;;2.30;;
77868;SDS011;67231;59.144;37.934;2023-11-18T15:12:46;8.68;;;3.35;;
77868;SDS011;67231;59.144;37.934;2023-11-18T15:15:28;7.63;;;3.30;;
77868;SDS011;67231;59.144;37.934;2023-11-18T15:18:01;6.70;;;3.00;;
77868;SDS011;67231;59.144;37.934;2023-11-18T15:20:36;20.20;;;5.32;;
77868;SDS011;67231;59.144;37.934;2023-11-18T15:23:03;6.30;;;2.47;;